Terminal Aerodrome Forecast
Issued by NWS

Home | Current Version | Previous Version | Text Only | Print | Product List | Glossary On
Versions: 1 2 3 4 5 6 7 8 9 10 11 12 13 14 15 16 17
000
FTUS43 KDDC 241430 AAB
TAFHYS
TAF AMD
KHYS 241430Z 2415/2512 19010KT P6SM OVC035
      TEMPO 2415/2419 3SM -RA BR BKN030
     FM250000 18007KT P6SM VCTS BKN060CB
     FM250400 14007KT P6SM -SHRA VCTS BKN060CB=

USA.gov is the U.S. government's official web portal to all federal, state and local government web resources and services.